Aérodrome :
LOGIN :

S'inscrire | Disclaimer

   EN    FR    IT 

 










Légende :    VFR   VFR Marginal   IFR   IFR Intensif   IFR Très Intensif
Visi : 
Plafond : 
>= 8 km
>= 3000ft
5 à 8 km
1000 à 3000 ft
1500m à 5 km
500 à 1000 ft
800 à 1500m
200 à 500 ft
< 800m
< 200 ft
Symboles :   Orages  Brouillard  Fortes neiges  Fortes précipitations  Vent > 20 kt
SIGMETs :   Divers  Orages  Givrage  Turbulence  Onde Orograph.  Cendres Volcan.







- Altitude de l'aérodrome : 38 ft
- Code IATA : BOH
- Voir les cartes d'approche


EGHH - Bournemouth

DERNIER METAR :
  • 171350Z 16003KT 3000 -RADZ BR BKN003 BKN008 14/14 Q1019

METARs EXPIRÉS :
  • 171320Z 18003KT 2500 -RADZ BR BKN003 BKN008 14/14 Q1019
  • 171250Z 20003KT 2500 -RADZ BR BKN003 BKN012 14/13 Q1019
  • 171220Z 21004KT 4000 -RADZ BR BKN004 BKN012 14/13 Q1019
  • 171150Z 20005KT 4000 -RADZ BR BKN003 BKN011 14/13 Q1019
  • 171120Z 18006KT 160V220 3500 -RADZ BR BKN003 OVC009 14/13 Q1019

TAF TAF EGHH
Valide du 17 à 12h jusqu'au 17 à 21h UTC


171059Z 1712/1721 VRB04KT 5000 -RADZ SCT003 BKN012
TEMPO 1712/1714 2000 DZ BR BKN003
BECMG 1714/1717 9999 NSW FEW010 SCT020
PROB40
TEMPO 1717/1721 7000 BKN014
ATIS : +44 1202 364 151
Météo : +44 1202 364 158 (TAF)
Pas de NOTAMs connus pour ce terrain.



MET'MAP, la Météo Aéronautique d'un coup d'oeil ! - Copyright ORBIFLY Décembre 2007 - Disclaimer

ORBIFLY MET'MAP TEAM :

Programmation & Développement : Alexandra Zaïnal
Conception & Développement : Baudouin d'Aumeries
Co-Programmation & Développement : Marc-Olivier Méhu
Soutien technique & logistique : Manuel Goepfert

Contact : metmap@orbifly.com




SOURCES & CREDITS :

   NOAA